PST,Max TemperatureF,Mean TemperatureF,Min TemperatureF,Max Dew PointF,MeanDew PointF,Min DewpointF,Max Humidity, Mean Humidity, Min Humidity, Max Sea Level PressureIn, Mean Sea Level PressureIn, Min Sea Level PressureIn, Max VisibilityMiles, Mean VisibilityMiles, Min VisibilityMiles, Max Wind SpeedMPH, Mean Wind SpeedMPH, Max Gust SpeedMPH,PrecipitationIn, CloudCover, Events, WindDirDegrees
2011-12-1,41,36,32,36,34,31,100,93,79,30.81,30.66,30.43,10,6,0,5,1,,0.00,5,Fog,151
2011-12-2,45,38,30,39,35,30,100,90,71,30.54,30.50,30.45,10,8,6,6,2,,0.00,6,,157
2011-12-3,39,34,30,36,32,29,100,90,79,30.55,30.53,30.51,10,9,8,6,2,,0.00,8,,139
2011-12-4,44,38,30,35,33,29,97,86,68,30.62,30.58,30.54,10,9,8,7,1,,0.00,3,,333
2011-12-5,42,35,28,36,31,27,100,89,76,30.59,30.51,30.45,10,8,1,8,1,,0.00,4,,121
2011-12-6,39,34,28,35,31,28,100,92,81,30.50,30.47,30.44,9,4,0,6,1,,0.00,8,Fog,135
2011-12-7,43,39,35,37,35,33,100,88,73,30.49,30.47,30.44,10,7,2,6,3,,0.00,7,,85
2011-12-8,41,37,33,34,32,30,92,82,73,30.47,30.43,30.39,10,10,10,7,2,,0.00,6,,8
2011-12-9,41,34,28,34,30,26,100,91,76,30.40,30.29,30.16,10,8,5,5,1,,0.00,3,,129
2011-12-10,39,34,30,37,33,27,97,90,79,30.19,30.16,30.14,10,7,5,7,4,,0.00,6,Rain,140
2011-12-11,42,38,35,37,35,32,100,88,76,30.25,30.15,30.11,10,7,2,96,3,,0.04,7,Rain,1
2011-12-12,41,34,28,34,30,27,100,91,67,30.30,30.21,30.10,10,5,1,8,1,,0.00,5,,352
2011-12-13,39,34,28,31,29,27,100,90,68,30.15,30.09,30.05,10,6,0,6,1,,0.00,5,Fog,129
2011-12-14,41,37,33,33,32,30,92,80,70,30.20,30.15,30.09,10,9,7,5,1,,0.00,6,,134
2011-12-15,44,40,37,43,40,33,100,92,82,30.50,30.35,30.14,10,6,2,5,0,,0.01,8,Rain,137
2011-12-16,50,44,36,43,41,35,100,88,71,30.51,30.47,30.42,10,9,5,6,2,,0.00,6,,149
2011-12-17,52,42,32,40,35,31,100,89,59,30.41,30.24,30.06,10,7,0,7,2,,0.00,3,Fog,136
2011-12-18,46,40,35,45,40,35,100,97,87,30.46,30.29,30.08,10,3,0,6,1,,0.00,7,Fog-Rain,135
2011-12-19,46,40,35,43,38,36,100,93,76,30.50,30.46,30.42,10,7,0,6,2,,0.00,7,Fog,126
2011-12-20,44,42,39,43,40,37,96,91,82,30.42,30.33,30.29,10,7,2,7,3,,0.00,7,Rain,146
2011-12-21,45,38,30,39,34,28,100,91,65,30.55,30.48,30.38,10,5,1,6,1,,0.00,4,,132
2011-12-22,35,30,26,34,30,27,100,95,87,30.56,30.42,30.33,8,3,0,10,2,,0.00,5,Fog,151
2011-12-23,50,41,32,43,37,28,93,85,71,30.56,30.51,30.39,10,10,3,8,4,,0.00,8,Rain,154
2011-12-24,53,47,41,44,41,38,96,85,57,30.52,30.41,30.21,10,9,4,5,2,,0.00,4,Rain,137
2011-12-25,48,44,39,41,38,35,96,82,71,30.39,30.19,29.99,10,10,6,20,6,43,0.00,4,Rain,151
2011-12-26,44,40,35,38,36,34,93,82,73,30.38,30.30,30.18,10,10,8,6,3,,0.00,7,Rain,142
2011-12-27,52,46,41,49,45,38,100,91,80,30.17,29.97,29.72,10,8,3,9,3,16,0.00,8,Rain,136
2011-12-28,55,52,50,52,48,43,94,85,76,29.91,29.78,29.60,10,8,2,15,10,26,0.00,7,Rain,158
2011-12-29,51,48,44,47,42,39,97,82,71,30.10,29.85,29.56,10,10,6,14,8,28,0.00,6,Rain,162
2011-12-30,48,42,37,44,37,32,87,74,61,30.24,29.85,29.62,10,10,9,14,8,23,0.00,4,Rain,168
2011-12-31,44,38,33,33,31,28,89,76,53,30.44,30.35,30.24,10,10,10,8,4,,0.00,2,,298